createdAt,value
2023-09-23T00:02:44.836Z,4.540000000000001
2023-09-23T00:05:45.438Z,4.46
2023-09-23T00:08:41.711Z,4.239999999999999
2023-09-23T00:11:38.384Z,4.62
2023-09-23T00:14:33.799Z,4.38
2023-09-23T00:17:29.409Z,4.4
2023-09-23T00:20:27.908Z,4.74
2023-09-23T00:23:28.475Z,4.44
2023-09-23T00:26:27.003Z,4.680000000000001
2023-09-23T00:29:27.565Z,4.64
2023-09-23T00:32:24.145Z,4.540000000000001
2023-09-23T00:35:22.678Z,3.54
2023-09-23T00:38:23.240Z,4.38
2023-09-23T00:41:19.865Z,4.540000000000001
2023-09-23T00:44:17.416Z,4.340000000000001
2023-09-23T00:47:15.977Z,4.64
2023-09-23T00:50:18.600Z,4.92
2023-09-23T00:53:15.114Z,3.9799999999999995
2023-09-23T00:56:17.617Z,4.92
2023-09-23T00:59:18.203Z,4.26
2023-09-23T01:02:14.798Z,4.9
2023-09-23T01:05:10.232Z,4.26
2023-09-23T01:08:19.812Z,4.32
2023-09-23T01:11:18.373Z,4.9799999999999995
2023-09-23T01:14:15.980Z,4.3
2023-09-23T01:17:15.478Z,4.460000000000001
2023-09-23T01:20:15.053Z,4.339999999999999
2023-09-23T01:23:11.536Z,3.9200000000000004
2023-09-23T01:26:13.297Z,4.24
2023-09-23T01:29:08.698Z,3.7
2023-09-23T01:32:14.240Z,3.94
2023-09-23T01:35:09.775Z,3.9799999999999995
2023-09-23T01:38:08.315Z,4.38
2023-09-23T01:41:05.881Z,3.5
2023-09-23T01:44:02.484Z,3.44
2023-09-23T01:46:59.087Z,4
2023-09-23T01:49:54.606Z,4.180000000000001
2023-09-23T01:52:50.140Z,4.02
2023-09-23T01:55:47.682Z,5.16
2023-09-23T01:58:46.154Z,4.16
2023-09-23T02:01:41.867Z,3.7199999999999998
2023-09-23T02:04:41.466Z,4.52
2023-09-23T02:07:39.910Z,4.0600000000000005
2023-09-23T02:10:36.434Z,4.14
2023-09-23T02:13:36.987Z,3.88
2023-09-23T02:16:34.679Z,4.06
2023-09-23T02:19:30.108Z,4.08
2023-09-23T02:22:25.671Z,3.9599999999999995
2023-09-23T02:25:26.551Z,4.2
2023-09-23T02:28:21.826Z,4
2023-09-23T02:31:17.395Z,4.68
2023-09-23T02:34:12.894Z,3.8599999999999994
2023-09-23T02:37:09.484Z,3.94
2023-09-23T02:40:07.028Z,4.26
2023-09-23T02:43:05.584Z,4.1
2023-09-23T02:46:01.197Z,4.12
2023-09-23T02:48:57.721Z,4
2023-09-23T02:51:53.262Z,5.119999999999999
2023-09-23T02:54:52.823Z,4.779999999999999
2023-09-23T02:57:50.379Z,4.9799999999999995
2023-09-23T03:00:57.916Z,5.62
2023-09-23T03:07:02.998Z,4.18
2023-09-23T03:10:01.611Z,4.659999999999999
2023-09-23T03:13:06.133Z,4.18
2023-09-23T03:16:11.652Z,5.9
2023-09-23T03:19:11.196Z,5.040000000000001
2023-09-23T03:22:08.723Z,5.0600000000000005
2023-09-23T03:25:05.301Z,4.44
2023-09-23T03:28:00.854Z,4.3
2023-09-23T03:30:59.377Z,4.38
2023-09-23T03:33:57.029Z,3.6399999999999997
2023-09-23T03:36:53.548Z,3.3200000000000003
2023-09-23T03:39:50.070Z,3.38
2023-09-23T03:42:48.652Z,3.72
2023-09-23T03:45:44.269Z,4.46
2023-09-23T03:48:39.737Z,4.2
2023-09-23T03:51:38.317Z,3.78
2023-09-23T03:54:33.830Z,3.7
2023-09-23T03:57:29.490Z,4.12
2023-09-23T04:00:27.986Z,3
2023-09-23T04:03:23.600Z,3.28
2023-09-23T04:06:25.094Z,3.4799999999999995
2023-09-23T04:09:21.669Z,3.04
2023-09-23T04:12:19.297Z,2.7400000000000007
2023-09-23T04:15:15.773Z,3.22
2023-09-23T04:18:12.352Z,3.4200000000000004
2023-09-23T04:21:09.951Z,3.84
2023-09-23T04:24:07.453Z,2.9799999999999995
2023-09-23T04:27:03.013Z,4.04
2023-09-23T04:30:02.661Z,4.06
2023-09-23T04:33:01.232Z,4.42
2023-09-23T04:35:57.648Z,3.56
2023-09-23T04:38:53.253Z,4.08
2023-09-23T04:41:48.781Z,3.7399999999999998
2023-09-23T04:44:45.580Z,3.7399999999999998
2023-09-23T04:47:40.945Z,2.9
2023-09-23T04:50:40.466Z,3.8600000000000003
2023-09-23T04:53:36.999Z,4.06
2023-09-23T04:56:41.562Z,3.7399999999999998
2023-09-23T04:59:38.120Z,3.04
2023-09-23T05:02:33.931Z,3.34
2023-09-23T05:05:29.352Z,3.6800000000000006
2023-09-23T05:08:25.876Z,3.5599999999999996
2023-09-23T05:11:22.656Z,3.44
2023-09-23T05:14:18.042Z,3.46
2023-09-23T05:17:16.488Z,3.4199999999999995
2023-09-23T05:20:15.039Z,3.44
2023-09-23T05:23:11.653Z,3.4
2023-09-23T05:26:09.209Z,3.2
2023-09-23T05:29:04.757Z,3.0200000000000005
2023-09-23T05:32:02.329Z,2.84
2023-09-23T05:35:01.844Z,3.2400000000000007
2023-09-23T05:37:57.425Z,3.54
2023-09-23T05:40:57.999Z,3.1799999999999997
2023-09-23T05:43:54.496Z,2.9799999999999995
2023-09-23T05:46:51.084Z,3.46
2023-09-23T05:49:47.885Z,4.18
2023-09-23T05:52:46.206Z,3.3200000000000003
2023-09-23T05:55:41.716Z,4.5
2023-09-23T05:58:37.283Z,3.88
2023-09-23T06:01:34.881Z,4.460000000000001
2023-09-23T06:04:31.468Z,3.9200000000000004
2023-09-23T06:07:27.982Z,3.16
2023-09-23T06:10:23.608Z,3.7600000000000002
2023-09-23T06:13:19.088Z,4.68
2023-09-23T06:16:17.729Z,3.44
2023-09-23T06:19:14.233Z,3.56
2023-09-23T06:22:09.809Z,4.82
2023-09-23T06:25:07.397Z,3.34
2023-09-23T06:28:04.901Z,4.46
2023-09-23T06:31:00.464Z,5.02
2023-09-23T06:33:55.968Z,5.4
2023-09-23T06:36:51.565Z,4.06
2023-09-23T06:39:47.141Z,3.8400000000000007
2023-09-23T06:42:45.697Z,4.619999999999999
2023-09-23T06:45:42.243Z,4.4799999999999995
2023-09-23T06:48:38.804Z,3.6199999999999997
2023-09-23T06:51:35.334Z,3.72
2023-09-23T06:54:30.936Z,4.06
2023-09-23T06:57:26.469Z,4.0600000000000005
2023-09-23T07:00:23.019Z,15.34
2023-09-23T07:03:18.819Z,4.880000000000001
2023-09-23T07:06:15.165Z,5.18
2023-09-23T07:09:11.749Z,3.7399999999999998
2023-09-23T07:12:07.330Z,4.38
2023-09-23T07:15:03.850Z,4.840000000000001
2023-09-23T07:18:00.401Z,4.779999999999999
2023-09-23T07:20:56.960Z,4.82
2023-09-23T07:23:52.527Z,4.66
2023-09-23T07:26:55.068Z,3.44
2023-09-23T07:29:51.638Z,3.5200000000000005
2023-09-23T07:32:47.206Z,3.1399999999999997
2023-09-23T07:35:43.776Z,2.52
2023-09-23T07:38:40.291Z,1.7
2023-09-23T07:41:36.864Z,2
2023-09-23T07:44:32.476Z,1.5
2023-09-23T07:47:28.082Z,1.46
2023-09-23T07:50:24.647Z,1.3
2023-09-23T07:53:20.169Z,1.02
2023-09-23T07:56:16.718Z,1.1400000000000001
2023-09-23T07:59:12.280Z,1.5799999999999998
2023-09-23T08:02:07.867Z,1.2399999999999998
2023-09-23T08:05:05.511Z,1.8800000000000001
2023-09-23T08:08:00.958Z,1.1800000000000002
2023-09-23T08:10:56.532Z,1.02
2023-09-23T08:13:53.069Z,1.3
2023-09-23T08:16:49.607Z,1.2
2023-09-23T08:19:46.143Z,1.22
2023-09-23T08:22:41.745Z,1.4
2023-09-23T08:25:37.341Z,1.08
2023-09-23T08:28:35.852Z,0.9800000000000001
2023-09-23T08:31:32.433Z,1.3400000000000003
2023-09-23T08:34:28.934Z,1.26
2023-09-23T08:37:24.503Z,1.36
2023-09-23T08:40:22.079Z,1.2399999999999998
2023-09-23T08:43:36.549Z,1.4599999999999997
2023-09-23T08:46:33.144Z,0.8800000000000001
2023-09-23T08:49:29.747Z,1.2399999999999998
2023-09-23T08:52:28.269Z,1.06
2023-09-23T08:55:25.834Z,0.76
2023-09-23T08:58:22.401Z,0.6599999999999999
2023-09-23T09:01:22.025Z,1.1400000000000001
2023-09-23T09:04:18.476Z,0.72
2023-09-23T09:07:24.022Z,0.7
2023-09-23T09:10:19.677Z,0.9400000000000001
2023-09-23T09:13:18.135Z,0.6199999999999999
2023-09-23T09:16:14.704Z,0.54
2023-09-23T09:19:11.258Z,0.7
2023-09-23T09:22:08.807Z,0.54
2023-09-23T09:25:08.388Z,0.6199999999999999
2023-09-23T09:28:04.940Z,0.5
2023-09-23T09:31:02.570Z,0.64
2023-09-23T09:34:00.988Z,0.64
2023-09-23T09:36:58.602Z,0.52
2023-09-23T09:39:59.158Z,0.7999999999999999
2023-09-23T09:46:11.448Z,0.54
2023-09-23T09:49:10.741Z,0.54
2023-09-23T09:52:07.320Z,0.7399999999999999
2023-09-23T09:55:06.905Z,0.7
2023-09-23T09:58:05.432Z,0.54
2023-09-23T10:01:03.050Z,0.4800000000000001
2023-09-23T10:04:00.628Z,0.6199999999999999
2023-09-23T10:06:57.120Z,0.72
2023-09-23T10:09:59.664Z,0.6
2023-09-23T10:13:04.167Z,0.6199999999999999
2023-09-23T10:16:05.717Z,0.6599999999999999
2023-09-23T10:19:11.329Z,0.48
2023-09-23T10:22:13.834Z,0.7399999999999999
2023-09-23T10:25:12.377Z,0.56
2023-09-23T10:28:17.917Z,0.6
2023-09-23T10:31:16.471Z,0.72
2023-09-23T10:34:15.011Z,0.72
2023-09-23T10:37:13.572Z,0.7399999999999999
2023-09-23T10:40:14.186Z,1.08
2023-09-23T10:43:10.665Z,0.8800000000000001
2023-09-23T10:46:07.317Z,0.76
2023-09-23T10:49:05.775Z,0.8200000000000001
2023-09-23T10:52:02.371Z,0.9199999999999999
2023-09-23T10:54:58.917Z,0.7399999999999999
2023-09-23T10:57:56.496Z,0.8
2023-09-23T11:00:54.036Z,0.78
2023-09-23T11:03:52.811Z,0.72
2023-09-23T11:06:49.185Z,0.8200000000000001
2023-09-23T11:09:46.787Z,0.6199999999999999
2023-09-23T11:12:46.303Z,0.8200000000000001
2023-09-23T11:15:47.076Z,0.54
2023-09-23T11:18:44.369Z,0.8600000000000001
2023-09-23T11:21:43.910Z,0.9400000000000001
2023-09-23T11:24:40.558Z,0.7799999999999999
2023-09-23T11:27:39.057Z,0.6
2023-09-23T11:30:37.582Z,1.08
2023-09-23T11:33:38.111Z,0.5
2023-09-23T11:36:34.727Z,0.9
2023-09-23T11:39:36.269Z,0.96
2023-09-23T11:42:34.774Z,0.7
2023-09-23T11:45:33.374Z,1.0399999999999998
2023-09-23T11:48:29.947Z,0.6799999999999999
2023-09-23T11:51:27.548Z,0.7399999999999999
2023-09-23T11:54:23.036Z,1.02
2023-09-23T11:57:19.630Z,0.9199999999999999
2023-09-23T12:00:18.559Z,1.78
2023-09-23T12:03:15.737Z,0.6799999999999999
2023-09-23T12:06:13.261Z,4.18
2023-09-23T12:09:11.863Z,1.5599999999999998
2023-09-23T12:12:10.383Z,1.3800000000000001
2023-09-23T12:15:08.938Z,1.16
2023-09-23T12:18:05.526Z,1.12
2023-09-23T12:21:02.539Z,0.8
2023-09-23T12:23:59.612Z,0.44000000000000006
2023-09-23T12:27:00.146Z,0.78
2023-09-23T12:29:56.675Z,0.52
2023-09-23T12:32:52.378Z,0.33999999999999997
2023-09-23T12:35:47.903Z,0.2
2023-09-23T12:38:43.373Z,0.42000000000000004
2023-09-23T12:41:43.936Z,0.45999999999999996
2023-09-23T12:44:41.520Z,0.32
2023-09-23T12:47:54.989Z,0.54
2023-09-23T12:50:41.607Z,0.44000000000000006
2023-09-23T12:53:38.190Z,0.45999999999999996
2023-09-23T12:56:34.738Z,0.33999999999999997
2023-09-23T12:59:32.288Z,0.45999999999999996
2023-09-23T13:02:28.972Z,0.6
2023-09-23T13:05:24.433Z,0.54
2023-09-23T13:08:21.024Z,0.7399999999999999
2023-09-23T13:11:17.517Z,0.4
2023-09-23T13:14:13.089Z,0.52
2023-09-23T13:17:09.657Z,0.42000000000000004
2023-09-23T13:20:07.348Z,0.7
2023-09-23T13:23:04.079Z,0.54
2023-09-23T13:26:03.366Z,1.02
2023-09-23T13:28:58.898Z,0.8800000000000001
2023-09-23T13:31:54.422Z,0.72
2023-09-23T13:34:50.054Z,0.9199999999999999
2023-09-23T13:37:45.522Z,0.7
2023-09-23T13:40:43.117Z,0.5800000000000001
2023-09-23T13:43:40.717Z,0.42000000000000004
2023-09-23T13:46:37.291Z,0.7399999999999999
2023-09-23T13:49:32.802Z,0.96
2023-09-23T13:52:30.330Z,0.7
2023-09-23T13:55:25.898Z,0.6199999999999999
2023-09-23T13:58:21.409Z,0.7399999999999999
2023-09-23T14:01:17.086Z,0.6199999999999999
2023-09-23T14:04:13.638Z,0.8399999999999999
2023-09-23T14:07:09.142Z,0.7
2023-09-23T14:10:18.676Z,0.8400000000000001
2023-09-23T14:13:06.243Z,0.7799999999999999
2023-09-23T14:16:02.960Z,0.7999999999999999
2023-09-23T14:18:58.360Z,0.8
2023-09-23T14:21:55.949Z,1.12
2023-09-23T14:24:52.497Z,1.08
2023-09-23T14:27:49.020Z,1.04
2023-09-23T14:30:44.623Z,0.96
2023-09-23T14:33:42.180Z,1.22
2023-09-23T14:36:38.766Z,2.3
2023-09-23T14:39:36.276Z,1.6
2023-09-23T14:42:34.861Z,1.18
2023-09-23T14:45:31.447Z,1.02
2023-09-23T14:48:28.023Z,0.7
2023-09-23T14:51:24.518Z,0.8800000000000001
2023-09-23T14:54:20.064Z,1.3399999999999999
2023-09-23T14:57:16.627Z,1.06
2023-09-23T15:00:14.212Z,1.3
2023-09-23T15:03:10.857Z,1.8800000000000001
2023-09-23T15:06:07.334Z,1.04
2023-09-23T15:09:03.339Z,1
2023-09-23T15:12:01.445Z,1.6600000000000001
2023-09-23T15:14:57.026Z,1.02
2023-09-23T15:17:53.605Z,1.06
2023-09-23T15:20:50.126Z,1.1400000000000001
2023-09-23T15:23:45.701Z,1.02
2023-09-23T15:26:42.235Z,1.22
2023-09-23T15:29:37.832Z,0.9
2023-09-23T15:32:35.419Z,0.76
2023-09-23T15:35:31.972Z,0.7
2023-09-23T15:38:27.495Z,0.9400000000000001
2023-09-23T15:41:25.080Z,0.96
2023-09-23T15:44:20.635Z,0.8
2023-09-23T15:47:18.177Z,1.1400000000000001
2023-09-23T15:50:15.742Z,1.2
2023-09-23T15:53:11.289Z,0.7999999999999999
2023-09-23T15:56:08.875Z,1.72
2023-09-23T15:59:05.442Z,1.6800000000000002
2023-09-23T16:02:01.132Z,1.56
2023-09-23T16:04:56.565Z,2.42
2023-09-23T16:07:52.054Z,1.86
2023-09-23T16:10:47.676Z,1.3800000000000001
2023-09-23T16:13:43.212Z,1.5599999999999998
2023-09-23T16:16:38.894Z,1.3199999999999998
2023-09-23T16:19:35.312Z,1.1
2023-09-23T16:22:31.898Z,1.1400000000000001
2023-09-23T16:25:27.485Z,1.44
2023-09-23T16:28:22.999Z,1.2799999999999998
2023-09-23T16:31:18.647Z,1.36
2023-09-23T16:34:14.116Z,1.06
2023-09-23T16:37:09.660Z,1.2
2023-09-23T16:40:08.259Z,1.5
2023-09-23T16:43:04.780Z,1.8
2023-09-23T16:46:01.325Z,0.9400000000000001
2023-09-23T16:48:58.915Z,1.6
2023-09-23T16:51:55.487Z,1.16
2023-09-23T16:54:51.033Z,0.9199999999999999
2023-09-23T16:57:51.627Z,1.6199999999999999
2023-09-23T17:00:49.174Z,1.6800000000000002
2023-09-23T17:03:45.536Z,1.3199999999999998
2023-09-23T17:06:42.247Z,1.1800000000000002
2023-09-23T17:09:37.840Z,1.6
2023-09-23T17:12:34.490Z,1.3800000000000001
2023-09-23T17:15:33.935Z,1.58
2023-09-23T17:18:30.504Z,1.06
2023-09-23T17:21:26.081Z,0.86
2023-09-23T17:24:21.628Z,0.9800000000000001
2023-09-23T17:27:17.228Z,1.2399999999999998
2023-09-23T17:30:12.734Z,0.96
2023-09-23T17:33:08.507Z,1.12
2023-09-23T17:36:05.884Z,0.8
2023-09-23T17:39:05.428Z,1
2023-09-23T17:42:02.968Z,1.02
2023-09-23T17:44:58.547Z,1.26
2023-09-23T17:47:54.258Z,1.1400000000000001
2023-09-23T17:50:49.728Z,1.1800000000000002
2023-09-23T17:53:47.343Z,1.28
2023-09-23T17:56:42.864Z,1.2399999999999998
2023-09-23T17:59:39.365Z,1.1800000000000002
2023-09-23T18:02:36.132Z,1
2023-09-23T18:05:33.581Z,1.3
2023-09-23T18:08:29.045Z,0.8400000000000001
2023-09-23T18:11:29.599Z,0.9
2023-09-23T18:14:25.138Z,0.8800000000000001
2023-09-23T18:17:21.091Z,0.8200000000000001
2023-09-23T18:20:22.287Z,0.7
2023-09-23T18:26:24.436Z,0.7999999999999999
2023-09-23T18:29:22.037Z,0.8
2023-09-23T18:32:22.472Z,0.78
2023-09-23T18:35:19.065Z,1.06
2023-09-23T18:38:16.633Z,1.22
2023-09-23T18:41:16.192Z,1.12
2023-09-23T18:44:12.842Z,0.8800000000000001
2023-09-23T18:47:11.190Z,1.12
2023-09-23T18:50:07.808Z,1.12
2023-09-23T18:53:05.321Z,1.1600000000000001
2023-09-23T18:56:02.879Z,0.96
2023-09-23T18:58:59.470Z,1
2023-09-23T19:01:56.012Z,1.5799999999999998
2023-09-23T19:04:52.578Z,1.8199999999999998
2023-09-23T19:07:49.129Z,1.44
2023-09-23T19:10:46.684Z,1.28
2023-09-23T19:13:43.247Z,1
2023-09-23T19:16:40.828Z,1.12
2023-09-23T19:19:38.383Z,1.2399999999999998
2023-09-23T19:22:33.920Z,1.1
2023-09-23T19:25:35.520Z,1.02
2023-09-23T19:28:30.992Z,1.1800000000000002
2023-09-23T19:31:29.616Z,1.1600000000000001
2023-09-23T19:34:27.132Z,0.76
2023-09-23T19:37:28.766Z,0.78
2023-09-23T19:40:25.251Z,0.9199999999999999
2023-09-23T19:43:23.774Z,0.9
2023-09-23T19:46:27.418Z,1.12
2023-09-23T19:49:24.971Z,1
2023-09-23T19:52:22.442Z,1.2399999999999998
2023-09-23T19:55:20.118Z,1.6
2023-09-23T19:58:19.604Z,0.8800000000000001
2023-09-23T20:01:18.186Z,1.28
2023-09-23T20:04:14.678Z,1.2
2023-09-23T20:07:12.257Z,1.5599999999999998
2023-09-23T20:10:10.770Z,1.2399999999999998
2023-09-23T20:13:11.379Z,1.1600000000000001
2023-09-23T20:16:10.264Z,1.1
2023-09-23T20:19:05.478Z,1.06
2023-09-23T20:22:03.045Z,1.08
2023-09-23T20:25:02.577Z,0.8
2023-09-23T20:27:59.217Z,0.9199999999999999
2023-09-23T20:30:59.716Z,0.9
2023-09-23T20:33:58.277Z,0.9199999999999999
2023-09-23T20:36:59.793Z,0.9199999999999999
2023-09-23T20:39:57.360Z,1.5799999999999998
2023-09-23T20:42:57.108Z,1.1
2023-09-23T20:45:56.471Z,0.7999999999999999
2023-09-23T20:48:54.023Z,0.7
2023-09-23T20:51:50.632Z,0.8800000000000001
2023-09-23T20:54:47.202Z,0.9800000000000001
2023-09-23T20:57:43.707Z,1.1800000000000002
2023-09-23T21:00:46.318Z,1.3199999999999998
2023-09-23T21:03:43.051Z,1.3599999999999999
2023-09-23T21:06:42.045Z,1.12
2023-09-23T21:09:45.886Z,1.1400000000000001
2023-09-23T21:12:42.513Z,1.1400000000000001
2023-09-23T21:15:40.005Z,0.9
2023-09-23T21:18:38.692Z,0.76
2023-09-23T21:21:37.089Z,1.1600000000000001
2023-09-23T21:24:33.632Z,1.36
2023-09-23T21:27:29.227Z,1.1600000000000001
2023-09-23T21:30:24.786Z,1.1
2023-09-23T21:33:21.436Z,1.1600000000000001
2023-09-23T21:36:17.883Z,1.1
2023-09-23T21:39:13.435Z,0.9
2023-09-23T21:42:11.027Z,0.7999999999999999
2023-09-23T21:45:12.615Z,1.7600000000000002
2023-09-23T21:48:08.302Z,1.92
2023-09-23T21:51:04.685Z,1.6800000000000002
2023-09-23T21:54:02.255Z,1.52
2023-09-23T21:56:57.805Z,1.42
2023-09-23T21:59:56.386Z,1.4
2023-09-23T22:02:59.030Z,1.44
2023-09-23T22:05:56.502Z,1.3400000000000003
2023-09-23T22:08:53.017Z,1.4599999999999997
2023-09-23T22:11:51.652Z,1.3199999999999998
2023-09-23T22:14:48.168Z,0.9800000000000001
2023-09-23T22:17:46.790Z,1.1800000000000002
2023-09-23T22:20:50.285Z,1.26
2023-09-23T22:23:49.061Z,1.2399999999999998
2023-09-23T22:26:49.336Z,0.96
2023-09-23T22:29:45.919Z,1.6600000000000001
2023-09-23T22:32:42.531Z,1.02
2023-09-23T22:35:40.051Z,1.1400000000000001
2023-09-23T22:38:36.639Z,1.02
2023-09-23T22:41:32.398Z,1.4599999999999997
2023-09-23T22:44:28.737Z,0.96
2023-09-23T22:47:24.299Z,1.46
2023-09-23T22:50:22.878Z,0.9
2023-09-23T22:53:18.440Z,1.36
2023-09-23T22:56:13.946Z,1.06
2023-09-23T22:59:11.491Z,1.44
2023-09-23T23:02:09.031Z,1.7399999999999998
2023-09-23T23:05:05.694Z,1.44
2023-09-23T23:08:04.134Z,1.7200000000000002
2023-09-23T23:11:00.712Z,1.1
2023-09-23T23:13:57.308Z,1.22
2023-09-23T23:16:53.867Z,1.22
2023-09-23T23:19:53.504Z,1.36
2023-09-23T23:22:50.006Z,1.48
2023-09-23T23:25:45.495Z,1.28
2023-09-23T23:28:41.091Z,0.9800000000000001
2023-09-23T23:31:39.628Z,1.6400000000000001
2023-09-23T23:34:38.168Z,1.2799999999999998
2023-09-23T23:37:37.764Z,1.2
2023-09-23T23:40:33.370Z,1.44
2023-09-23T23:43:28.873Z,1.2400000000000002
2023-09-23T23:46:31.456Z,1.26
2023-09-23T23:49:26.978Z,1.2799999999999998
2023-09-23T23:52:24.541Z,1.4600000000000002
2023-09-23T23:55:20.054Z,1.3199999999999998
2023-09-23T23:58:17.648Z,1.56
